sensor_id;sensor_type;location;lat;lon;timestamp;temperature;humidity
10249;DHT22;5169;50.560;9.714;2022-12-18T00:01:12;-7.40;99.90
10249;DHT22;5169;50.560;9.714;2022-12-18T00:03:38;-7.30;99.90
10249;DHT22;5169;50.560;9.714;2022-12-18T00:06:04;-7.40;99.90
10249;DHT22;5169;50.560;9.714;2022-12-18T00:08:30;-7.40;99.90
10249;DHT22;5169;50.560;9.714;2022-12-18T00:11:07;-7.50;99.90
10249;DHT22;5169;50.560;9.714;2022-12-18T00:13:33;-7.30;99.90
10249;DHT22;5169;50.560;9.714;2022-12-18T00:16:09;-7.20;99.90
10249;DHT22;5169;50.560;9.714;2022-12-18T00:18:38;-7.20;99.90
10249;DHT22;5169;50.560;9.714;2022-12-18T00:21:06;-7.20;99.90
10249;DHT22;5169;50.560;9.714;2022-12-18T00:23:32;-7.30;99.90
10249;DHT22;5169;50.560;9.714;2022-12-18T00:26:06;-7.40;99.90
10249;DHT22;5169;50.560;9.714;2022-12-18T00:28:32;-7.40;99.90
10249;DHT22;5169;50.560;9.714;2022-12-18T00:31:03;-7.40;99.90
10249;DHT22;5169;50.560;9.714;2022-12-18T00:33:32;-7.50;99.90
10249;DHT22;5169;50.560;9.714;2022-12-18T00:36:06;-7.50;99.90
10249;DHT22;5169;50.560;9.714;2022-12-18T00:38:34;-7.60;99.90
10249;DHT22;5169;50.560;9.714;2022-12-18T00:41:00;-7.70;99.90
10249;DHT22;5169;50.560;9.714;2022-12-18T00:43:26;-7.90;99.90
10249;DHT22;5169;50.560;9.714;2022-12-18T00:45:56;-8.00;99.90
10249;DHT22;5169;50.560;9.714;2022-12-18T00:48:24;-8.00;99.90
10249;DHT22;5169;50.560;9.714;2022-12-18T00:50:50;-7.90;99.90
10249;DHT22;5169;50.560;9.714;2022-12-18T00:53:19;-7.80;99.90
10249;DHT22;5169;50.560;9.714;2022-12-18T00:55:47;-7.70;99.90
10249;DHT22;5169;50.560;9.714;2022-12-18T00:58:15;-7.70;99.90
10249;DHT22;5169;50.560;9.714;2022-12-18T01:00:42;-7.50;99.90
10249;DHT22;5169;50.560;9.714;2022-12-18T01:03:08;-7.50;99.90
10249;DHT22;5169;50.560;9.714;2022-12-18T01:05:39;-7.50;99.90
10249;DHT22;5169;50.560;9.714;2022-12-18T01:08:05;-7.60;99.90
10249;DHT22;5169;50.560;9.714;2022-12-18T01:10:31;-7.50;99.90
10249;DHT22;5169;50.560;9.714;2022-12-18T01:12:56;-7.40;99.90
10249;DHT22;5169;50.560;9.714;2022-12-18T01:15:22;-7.30;99.90
10249;DHT22;5169;50.560;9.714;2022-12-18T01:17:48;-7.30;99.90
10249;DHT22;5169;50.560;9.714;2022-12-18T01:20:13;-7.30;99.90
10249;DHT22;5169;50.560;9.714;2022-12-18T01:22:39;-7.40;99.90
10249;DHT22;5169;50.560;9.714;2022-12-18T01:25:05;-7.40;99.90
10249;DHT22;5169;50.560;9.714;2022-12-18T01:27:33;-7.70;99.90
10249;DHT22;5169;50.560;9.714;2022-12-18T01:30:03;-7.90;99.90
10249;DHT22;5169;50.560;9.714;2022-12-18T01:32:30;-7.90;99.90
10249;DHT22;5169;50.560;9.714;2022-12-18T01:34:56;-7.90;99.90
10249;DHT22;5169;50.560;9.714;2022-12-18T01:37:24;-7.80;99.90
10249;DHT22;5169;50.560;9.714;2022-12-18T01:39:54;-7.80;99.90
10249;DHT22;5169;50.560;9.714;2022-12-18T01:42:21;-7.90;99.90
10249;DHT22;5169;50.560;9.714;2022-12-18T01:47:43;-7.90;99.90
10249;DHT22;5169;50.560;9.714;2022-12-18T01:50:42;-7.90;99.90
10249;DHT22;5169;50.560;9.714;2022-12-18T01:53:17;-8.00;99.90
10249;DHT22;5169;50.560;9.714;2022-12-18T01:55:50;-7.80;99.90
10249;DHT22;5169;50.560;9.714;2022-12-18T01:58:46;-7.60;99.90
10249;DHT22;5169;50.560;9.714;2022-12-18T02:01:09;-7.60;99.90
10249;DHT22;5169;50.560;9.714;2022-12-18T02:03:35;-7.80;99.90
10249;DHT22;5169;50.560;9.714;2022-12-18T02:14:35;-8.30;99.90
10249;DHT22;5169;50.560;9.714;2022-12-18T02:17:22;-8.40;99.90
10249;DHT22;5169;50.560;9.714;2022-12-18T02:22:59;-8.60;99.90
10249;DHT22;5169;50.560;9.714;2022-12-18T02:25:53;-8.60;99.90
10249;DHT22;5169;50.560;9.714;2022-12-18T02:28:31;-8.60;99.90
10249;DHT22;5169;50.560;9.714;2022-12-18T02:31:00;-8.50;99.90
10249;DHT22;5169;50.560;9.714;2022-12-18T02:33:27;-8.50;99.90
10249;DHT22;5169;50.560;9.714;2022-12-18T02:35:58;-8.60;99.90
10249;DHT22;5169;50.560;9.714;2022-12-18T02:38:29;-8.70;99.90
10249;DHT22;5169;50.560;9.714;2022-12-18T02:41:02;-8.70;99.90
10249;DHT22;5169;50.560;9.714;2022-12-18T02:43:29;-8.70;99.90
10249;DHT22;5169;50.560;9.714;2022-12-18T02:46:00;-8.60;99.90
10249;DHT22;5169;50.560;9.714;2022-12-18T02:48:35;-8.70;99.90
10249;DHT22;5169;50.560;9.714;2022-12-18T02:54:03;-8.70;99.90
10249;DHT22;5169;50.560;9.714;2022-12-18T02:56:39;-8.60;99.90
10249;DHT22;5169;50.560;9.714;2022-12-18T02:59:20;-8.60;99.90
10249;DHT22;5169;50.560;9.714;2022-12-18T03:02:09;-8.40;99.90
10249;DHT22;5169;50.560;9.714;2022-12-18T03:04:47;-8.50;99.90
10249;DHT22;5169;50.560;9.714;2022-12-18T03:07:33;-8.60;99.90
10249;DHT22;5169;50.560;9.714;2022-12-18T03:10:01;-8.70;99.90
10249;DHT22;5169;50.560;9.714;2022-12-18T03:12:37;-8.70;99.90
10249;DHT22;5169;50.560;9.714;2022-12-18T03:17:57;-8.60;99.90
10249;DHT22;5169;50.560;9.714;2022-12-18T03:20:34;-8.70;99.90
10249;DHT22;5169;50.560;9.714;2022-12-18T03:23:15;-8.80;99.90
10249;DHT22;5169;50.560;9.714;2022-12-18T03:25:49;-8.90;99.90
10249;DHT22;5169;50.560;9.714;2022-12-18T03:28:20;-8.80;99.90
10249;DHT22;5169;50.560;9.714;2022-12-18T03:30:47;-8.50;99.90
10249;DHT22;5169;50.560;9.714;2022-12-18T03:33:26;-8.30;99.90
10249;DHT22;5169;50.560;9.714;2022-12-18T03:36:01;-8.30;99.90
10249;DHT22;5169;50.560;9.714;2022-12-18T03:38:27;-8.40;99.90
10249;DHT22;5169;50.560;9.714;2022-12-18T03:41:18;-8.40;99.90
10249;DHT22;5169;50.560;9.714;2022-12-18T03:47:00;-8.50;99.90
10249;DHT22;5169;50.560;9.714;2022-12-18T03:49:39;-8.60;99.90
10249;DHT22;5169;50.560;9.714;2022-12-18T03:52:22;-8.80;99.90
10249;DHT22;5169;50.560;9.714;2022-12-18T03:54:52;-9.00;99.90
10249;DHT22;5169;50.560;9.714;2022-12-18T03:57:26;-9.10;99.90
10249;DHT22;5169;50.560;9.714;2022-12-18T04:00:17;-9.10;99.90
10249;DHT22;5169;50.560;9.714;2022-12-18T04:02:53;-9.10;99.90
10249;DHT22;5169;50.560;9.714;2022-12-18T04:05:23;-9.20;99.90
10249;DHT22;5169;50.560;9.714;2022-12-18T04:07:51;-9.30;99.90
10249;DHT22;5169;50.560;9.714;2022-12-18T04:10:26;-9.20;99.90
10249;DHT22;5169;50.560;9.714;2022-12-18T04:12:56;-9.30;99.90
10249;DHT22;5169;50.560;9.714;2022-12-18T04:15:25;-9.30;99.90
10249;DHT22;5169;50.560;9.714;2022-12-18T04:17:56;-9.30;99.90
10249;DHT22;5169;50.560;9.714;2022-12-18T04:20:24;-9.30;99.90
10249;DHT22;5169;50.560;9.714;2022-12-18T04:22:52;-9.30;99.90
10249;DHT22;5169;50.560;9.714;2022-12-18T04:25:26;-9.40;99.90
10249;DHT22;5169;50.560;9.714;2022-12-18T04:27:56;-9.30;99.90
10249;DHT22;5169;50.560;9.714;2022-12-18T04:30:21;-9.30;99.90
10249;DHT22;5169;50.560;9.714;2022-12-18T04:32:47;-9.20;99.90
10249;DHT22;5169;50.560;9.714;2022-12-18T04:35:15;-9.30;99.90
10249;DHT22;5169;50.560;9.714;2022-12-18T04:37:41;-9.20;99.90
10249;DHT22;5169;50.560;9.714;2022-12-18T04:40:07;-9.20;99.90
10249;DHT22;5169;50.560;9.714;2022-12-18T04:42:33;-9.10;99.90
10249;DHT22;5169;50.560;9.714;2022-12-18T04:44:59;-9.00;99.90
10249;DHT22;5169;50.560;9.714;2022-12-18T04:47:28;-8.90;99.90
10249;DHT22;5169;50.560;9.714;2022-12-18T04:49:54;-8.80;99.90
10249;DHT22;5169;50.560;9.714;2022-12-18T04:52:19;-9.00;99.90
10249;DHT22;5169;50.560;9.714;2022-12-18T04:54:45;-9.00;99.90
10249;DHT22;5169;50.560;9.714;2022-12-18T04:57:11;-9.10;99.90
10249;DHT22;5169;50.560;9.714;2022-12-18T04:59:36;-9.10;99.90
10249;DHT22;5169;50.560;9.714;2022-12-18T05:02:05;-9.00;99.90
10249;DHT22;5169;50.560;9.714;2022-12-18T05:04:30;-9.10;99.90
10249;DHT22;5169;50.560;9.714;2022-12-18T05:06:58;-9.10;99.90
10249;DHT22;5169;50.560;9.714;2022-12-18T05:09:29;-9.20;99.90
10249;DHT22;5169;50.560;9.714;2022-12-18T05:11:54;-9.20;99.90
10249;DHT22;5169;50.560;9.714;2022-12-18T05:14:20;-9.30;99.90
10249;DHT22;5169;50.560;9.714;2022-12-18T05:16:48;-9.20;99.90
10249;DHT22;5169;50.560;9.714;2022-12-18T05:19:14;-9.10;99.90
10249;DHT22;5169;50.560;9.714;2022-12-18T05:21:39;-9.00;99.90
10249;DHT22;5169;50.560;9.714;2022-12-18T05:24:05;-9.00;99.90
10249;DHT22;5169;50.560;9.714;2022-12-18T05:26:33;-9.00;99.90
10249;DHT22;5169;50.560;9.714;2022-12-18T05:28:59;-9.10;99.90
10249;DHT22;5169;50.560;9.714;2022-12-18T05:31:25;-9.10;99.90
10249;DHT22;5169;50.560;9.714;2022-12-18T05:33:50;-9.30;99.90
10249;DHT22;5169;50.560;9.714;2022-12-18T05:36:16;-9.30;99.90
10249;DHT22;5169;50.560;9.714;2022-12-18T05:38:42;-9.50;99.90
10249;DHT22;5169;50.560;9.714;2022-12-18T05:41:14;-9.60;99.90
10249;DHT22;5169;50.560;9.714;2022-12-18T05:43:40;-9.70;99.90
10249;DHT22;5169;50.560;9.714;2022-12-18T05:46:08;-9.70;99.90
10249;DHT22;5169;50.560;9.714;2022-12-18T05:48:34;-9.50;99.90
10249;DHT22;5169;50.560;9.714;2022-12-18T05:51:09;-9.60;99.90
10249;DHT22;5169;50.560;9.714;2022-12-18T05:53:40;-9.70;99.90
10249;DHT22;5169;50.560;9.714;2022-12-18T05:56:08;-9.40;99.90
10249;DHT22;5169;50.560;9.714;2022-12-18T05:58:40;-9.50;99.90
10249;DHT22;5169;50.560;9.714;2022-12-18T06:01:15;-9.50;99.90
10249;DHT22;5169;50.560;9.714;2022-12-18T06:03:42;-9.40;99.90
10249;DHT22;5169;50.560;9.714;2022-12-18T06:06:20;-9.30;99.90
10249;DHT22;5169;50.560;9.714;2022-12-18T06:08:59;-9.40;99.90
10249;DHT22;5169;50.560;9.714;2022-12-18T06:11:33;-9.50;99.90
10249;DHT22;5169;50.560;9.714;2022-12-18T06:14:03;-9.50;99.90
10249;DHT22;5169;50.560;9.714;2022-12-18T06:16:32;-9.40;99.90
10249;DHT22;5169;50.560;9.714;2022-12-18T06:18:59;-9.40;99.90
10249;DHT22;5169;50.560;9.714;2022-12-18T06:21:25;-9.40;99.90
10249;DHT22;5169;50.560;9.714;2022-12-18T06:23:57;-9.60;99.90
10249;DHT22;5169;50.560;9.714;2022-12-18T06:26:23;-9.80;99.90
10249;DHT22;5169;50.560;9.714;2022-12-18T06:28:49;-9.70;99.90
10249;DHT22;5169;50.560;9.714;2022-12-18T06:31:15;-9.80;99.90
10249;DHT22;5169;50.560;9.714;2022-12-18T06:33:45;-9.90;99.90
10249;DHT22;5169;50.560;9.714;2022-12-18T06:36:13;-9.70;99.90
10249;DHT22;5169;50.560;9.714;2022-12-18T06:38:43;-9.70;99.90
10249;DHT22;5169;50.560;9.714;2022-12-18T06:41:32;-9.80;99.90
10249;DHT22;5169;50.560;9.714;2022-12-18T06:43:58;-9.70;99.90
10249;DHT22;5169;50.560;9.714;2022-12-18T06:46:23;-9.60;99.90
10249;DHT22;5169;50.560;9.714;2022-12-18T06:48:54;-9.70;99.90
10249;DHT22;5169;50.560;9.714;2022-12-18T06:51:21;-9.80;99.90
10249;DHT22;5169;50.560;9.714;2022-12-18T06:53:47;-9.80;99.90
10249;DHT22;5169;50.560;9.714;2022-12-18T06:56:18;-9.80;99.90
10249;DHT22;5169;50.560;9.714;2022-12-18T06:58:44;-9.80;99.90
10249;DHT22;5169;50.560;9.714;2022-12-18T07:01:13;-9.90;99.90
10249;DHT22;5169;50.560;9.714;2022-12-18T07:03:42;-9.80;99.90
10249;DHT22;5169;50.560;9.714;2022-12-18T07:06:19;-9.80;99.90
10249;DHT22;5169;50.560;9.714;2022-12-18T07:08:49;-9.70;99.90
10249;DHT22;5169;50.560;9.714;2022-12-18T07:11:16;-9.90;99.90
10249;DHT22;5169;50.560;9.714;2022-12-18T07:13:42;-9.80;99.90
10249;DHT22;5169;50.560;9.714;2022-12-18T07:16:19;-9.80;99.90
10249;DHT22;5169;50.560;9.714;2022-12-18T07:18:48;-9.70;99.90
10249;DHT22;5169;50.560;9.714;2022-12-18T07:21:18;-9.60;99.90
10249;DHT22;5169;50.560;9.714;2022-12-18T07:23:50;-9.70;99.90
10249;DHT22;5169;50.560;9.714;2022-12-18T07:26:22;-9.70;99.90
10249;DHT22;5169;50.560;9.714;2022-12-18T07:28:48;-9.70;99.90
10249;DHT22;5169;50.560;9.714;2022-12-18T07:31:22;-9.70;99.90
10249;DHT22;5169;50.560;9.714;2022-12-18T07:33:53;-9.80;99.90
10249;DHT22;5169;50.560;9.714;2022-12-18T07:36:19;-9.80;99.90
10249;DHT22;5169;50.560;9.714;2022-12-18T07:38:48;-9.70;99.90
10249;DHT22;5169;50.560;9.714;2022-12-18T07:41:20;-9.60;99.90
10249;DHT22;5169;50.560;9.714;2022-12-18T07:43:48;-9.50;99.90
10249;DHT22;5169;50.560;9.714;2022-12-18T07:46:15;-9.60;99.90
10249;DHT22;5169;50.560;9.714;2022-12-18T07:48:44;-9.50;99.90
10249;DHT22;5169;50.560;9.714;2022-12-18T07:51:13;-9.60;99.90
10249;DHT22;5169;50.560;9.714;2022-12-18T07:53:41;-9.60;99.90
10249;DHT22;5169;50.560;9.714;2022-12-18T07:56:09;-9.80;99.90
10249;DHT22;5169;50.560;9.714;2022-12-18T07:58:39;-9.80;99.90
10249;DHT22;5169;50.560;9.714;2022-12-18T08:01:07;-9.70;99.90
10249;DHT22;5169;50.560;9.714;2022-12-18T08:03:33;-9.70;99.90
10249;DHT22;5169;50.560;9.714;2022-12-18T08:06:07;-9.70;99.90
10249;DHT22;5169;50.560;9.714;2022-12-18T08:08:34;-9.70;99.90
10249;DHT22;5169;50.560;9.714;2022-12-18T08:11:03;-9.60;99.90
10249;DHT22;5169;50.560;9.714;2022-12-18T08:13:29;-9.50;99.90
10249;DHT22;5169;50.560;9.714;2022-12-18T08:16:03;-9.50;99.90
10249;DHT22;5169;50.560;9.714;2022-12-18T08:18:29;-9.50;99.90
10249;DHT22;5169;50.560;9.714;2022-12-18T08:20:55;-9.60;99.90
10249;DHT22;5169;50.560;9.714;2022-12-18T08:23:21;-9.40;99.90
10249;DHT22;5169;50.560;9.714;2022-12-18T08:25:47;-9.30;99.90
10249;DHT22;5169;50.560;9.714;2022-12-18T08:28:13;-9.00;99.90
10249;DHT22;5169;50.560;9.714;2022-12-18T08:30:38;-8.70;99.90
10249;DHT22;5169;50.560;9.714;2022-12-18T08:33:04;-8.50;99.90
10249;DHT22;5169;50.560;9.714;2022-12-18T08:35:30;-8.40;99.90
10249;DHT22;5169;50.560;9.714;2022-12-18T08:37:59;-8.30;99.90
10249;DHT22;5169;50.560;9.714;2022-12-18T08:40:25;-8.00;99.90
10249;DHT22;5169;50.560;9.714;2022-12-18T08:42:50;-7.90;99.90
10249;DHT22;5169;50.560;9.714;2022-12-18T08:45:37;-7.60;99.90
10249;DHT22;5169;50.560;9.714;2022-12-18T08:48:03;-7.40;99.90
10249;DHT22;5169;50.560;9.714;2022-12-18T08:50:28;-7.10;99.90
10249;DHT22;5169;50.560;9.714;2022-12-18T08:52:56;-6.20;99.90
10249;DHT22;5169;50.560;9.714;2022-12-18T08:55:22;-4.90;99.90
10249;DHT22;5169;50.560;9.714;2022-12-18T08:57:50;-4.10;99.90
10249;DHT22;5169;50.560;9.714;2022-12-18T09:00:18;-3.60;99.90
10249;DHT22;5169;50.560;9.714;2022-12-18T09:02:44;-2.50;99.90
10249;DHT22;5169;50.560;9.714;2022-12-18T09:05:09;-1.00;99.90
10249;DHT22;5169;50.560;9.714;2022-12-18T09:07:36;0.50;99.50
10249;DHT22;5169;50.560;9.714;2022-12-18T09:10:01;1.30;96.90
10249;DHT22;5169;50.560;9.714;2022-12-18T09:12:27;1.70;96.30
10249;DHT22;5169;50.560;9.714;2022-12-18T09:14:55;3.00;93.70
10249;DHT22;5169;50.560;9.714;2022-12-18T09:17:22;3.60;91.20
10249;DHT22;5169;50.560;9.714;2022-12-18T09:19:47;3.50;90.90
10249;DHT22;5169;50.560;9.714;2022-12-18T09:22:13;3.30;90.90
10249;DHT22;5169;50.560;9.714;2022-12-18T09:24:43;3.20;90.20
10249;DHT22;5169;50.560;9.714;2022-12-18T09:27:11;3.60;90.00
10249;DHT22;5169;50.560;9.714;2022-12-18T09:29:39;4.10;89.40
10249;DHT22;5169;50.560;9.714;2022-12-18T09:32:05;4.90;83.10
10249;DHT22;5169;50.560;9.714;2022-12-18T09:34:33;4.80;82.50
10249;DHT22;5169;50.560;9.714;2022-12-18T09:37:01;4.30;81.20
10249;DHT22;5169;50.560;9.714;2022-12-18T09:39:26;4.10;81.70
10249;DHT22;5169;50.560;9.714;2022-12-18T09:41:55;2.90;83.50
10249;DHT22;5169;50.560;9.714;2022-12-18T09:44:41;3.70;84.00
10249;DHT22;5169;50.560;9.714;2022-12-18T09:50:27;5.70;78.70
10249;DHT22;5169;50.560;9.714;2022-12-18T09:52:58;5.30;79.00
10249;DHT22;5169;50.560;9.714;2022-12-18T09:55:28;5.10;79.00
10249;DHT22;5169;50.560;9.714;2022-12-18T09:58:00;4.20;83.30
10249;DHT22;5169;50.560;9.714;2022-12-18T10:00:28;3.80;82.70
10249;DHT22;5169;50.560;9.714;2022-12-18T10:03:01;3.30;84.30
10249;DHT22;5169;50.560;9.714;2022-12-18T10:13:35;5.30;84.60
10249;DHT22;5169;50.560;9.714;2022-12-18T10:16:09;6.00;80.50
10249;DHT22;5169;50.560;9.714;2022-12-18T10:19:15;6.50;78.80
10249;DHT22;5169;50.560;9.714;2022-12-18T10:22:01;7.30;76.90
10249;DHT22;5169;50.560;9.714;2022-12-18T10:25:02;8.40;74.20
10249;DHT22;5169;50.560;9.714;2022-12-18T10:27:32;7.50;71.60
10249;DHT22;5169;50.560;9.714;2022-12-18T10:30:18;6.60;75.70
10249;DHT22;5169;50.560;9.714;2022-12-18T10:32:46;6.20;75.10
10249;DHT22;5169;50.560;9.714;2022-12-18T10:35:25;5.00;79.70
10249;DHT22;5169;50.560;9.714;2022-12-18T10:38:26;4.60;81.60
10249;DHT22;5169;50.560;9.714;2022-12-18T10:43:25;4.30;84.40
10249;DHT22;5169;50.560;9.714;2022-12-18T10:46:19;5.40;82.80
10249;DHT22;5169;50.560;9.714;2022-12-18T10:48:56;7.00;78.00
10249;DHT22;5169;50.560;9.714;2022-12-18T10:56:29;7.50;74.00
10249;DHT22;5169;50.560;9.714;2022-12-18T11:01:30;10.30;65.40
10249;DHT22;5169;50.560;9.714;2022-12-18T11:04:18;9.40;63.90
10249;DHT22;5169;50.560;9.714;2022-12-18T11:06:56;7.10;66.20
10249;DHT22;5169;50.560;9.714;2022-12-18T11:09:25;6.30;69.60
10249;DHT22;5169;50.560;9.714;2022-12-18T11:11:53;6.60;70.50
10249;DHT22;5169;50.560;9.714;2022-12-18T11:16:50;6.40;70.20
10249;DHT22;5169;50.560;9.714;2022-12-18T11:21:51;5.80;72.00
10249;DHT22;5169;50.560;9.714;2022-12-18T11:24:32;6.00;72.10
10249;DHT22;5169;50.560;9.714;2022-12-18T11:27:04;6.10;71.90
10249;DHT22;5169;50.560;9.714;2022-12-18T11:29:38;5.90;74.50
10249;DHT22;5169;50.560;9.714;2022-12-18T11:37:31;2.40;84.30
10249;DHT22;5169;50.560;9.714;2022-12-18T11:40:18;1.90;86.70
10249;DHT22;5169;50.560;9.714;2022-12-18T11:43:06;1.40;90.00
10249;DHT22;5169;50.560;9.714;2022-12-18T11:45:40;1.50;91.00
10249;DHT22;5169;50.560;9.714;2022-12-18T11:48:30;1.30;91.10
10249;DHT22;5169;50.560;9.714;2022-12-18T11:51:00;0.90;91.90
10249;DHT22;5169;50.560;9.714;2022-12-18T11:53:27;0.70;92.90
10249;DHT22;5169;50.560;9.714;2022-12-18T12:01:48;1.50;92.80
10249;DHT22;5169;50.560;9.714;2022-12-18T12:04:45;1.10;93.80
10249;DHT22;5169;50.560;9.714;2022-12-18T12:07:27;1.50;94.20
10249;DHT22;5169;50.560;9.714;2022-12-18T12:20:46;1.60;94.40
10249;DHT22;5169;50.560;9.714;2022-12-18T12:23:52;1.30;94.90
10249;DHT22;5169;50.560;9.714;2022-12-18T12:29:30;0.00;96.40
10249;DHT22;5169;50.560;9.714;2022-12-18T12:34:38;0.20;97.60
10249;DHT22;5169;50.560;9.714;2022-12-18T12:39:59;1.10;97.20
10249;DHT22;5169;50.560;9.714;2022-12-18T12:42:54;1.00;97.00
10249;DHT22;5169;50.560;9.714;2022-12-18T12:45:51;0.60;97.60
10249;DHT22;5169;50.560;9.714;2022-12-18T12:48:46;0.50;98.40
10249;DHT22;5169;50.560;9.714;2022-12-18T12:53:52;0.40;98.90
10249;DHT22;5169;50.560;9.714;2022-12-18T12:56:22;0.30;99.70
10249;DHT22;5169;50.560;9.714;2022-12-18T12:59:04;0.20;99.90
10249;DHT22;5169;50.560;9.714;2022-12-18T13:06:58;0.30;99.90
10249;DHT22;5169;50.560;9.714;2022-12-18T13:09:33;0.20;99.50
10249;DHT22;5169;50.560;9.714;2022-12-18T13:12:12;0.30;99.90
10249;DHT22;5169;50.560;9.714;2022-12-18T13:15:24;0.10;99.90
10249;DHT22;5169;50.560;9.714;2022-12-18T13:25:57;-0.40;99.90
10249;DHT22;5169;50.560;9.714;2022-12-18T13:34:28;-0.90;99.90
10249;DHT22;5169;50.560;9.714;2022-12-18T13:39:57;-1.20;99.90
10249;DHT22;5169;50.560;9.714;2022-12-18T13:42:36;-1.20;99.90
10249;DHT22;5169;50.560;9.714;2022-12-18T13:45:43;-1.10;99.90
10249;DHT22;5169;50.560;9.714;2022-12-18T13:48:18;-1.00;99.90
10249;DHT22;5169;50.560;9.714;2022-12-18T13:50:57;-1.10;99.90
10249;DHT22;5169;50.560;9.714;2022-12-18T13:53:34;-1.20;99.90
10249;DHT22;5169;50.560;9.714;2022-12-18T13:56:05;-1.30;99.90
10249;DHT22;5169;50.560;9.714;2022-12-18T13:58:34;-1.30;99.90
10249;DHT22;5169;50.560;9.714;2022-12-18T14:00:59;-1.40;99.90
10249;DHT22;5169;50.560;9.714;2022-12-18T14:03:30;-1.40;99.90
10249;DHT22;5169;50.560;9.714;2022-12-18T14:06:00;-1.30;99.90
10249;DHT22;5169;50.560;9.714;2022-12-18T14:08:34;-1.40;99.90
10249;DHT22;5169;50.560;9.714;2022-12-18T14:11:03;-1.30;99.90
10249;DHT22;5169;50.560;9.714;2022-12-18T14:13:40;-1.70;99.90
10249;DHT22;5169;50.560;9.714;2022-12-18T14:16:07;-2.10;99.90
10249;DHT22;5169;50.560;9.714;2022-12-18T14:18:50;-2.10;99.90
10249;DHT22;5169;50.560;9.714;2022-12-18T14:21:26;-2.00;99.90
10249;DHT22;5169;50.560;9.714;2022-12-18T14:24:04;-2.00;99.90
10249;DHT22;5169;50.560;9.714;2022-12-18T14:26:31;-1.90;99.90
10249;DHT22;5169;50.560;9.714;2022-12-18T14:29:00;-1.90;99.90
10249;DHT22;5169;50.560;9.714;2022-12-18T14:31:30;-2.00;99.90
10249;DHT22;5169;50.560;9.714;2022-12-18T14:33:56;-2.00;99.90
10249;DHT22;5169;50.560;9.714;2022-12-18T14:36:27;-2.10;99.90
10249;DHT22;5169;50.560;9.714;2022-12-18T14:38:59;-2.10;99.90
10249;DHT22;5169;50.560;9.714;2022-12-18T14:41:26;-2.10;99.90
10249;DHT22;5169;50.560;9.714;2022-12-18T14:44:05;-2.00;99.90
10249;DHT22;5169;50.560;9.714;2022-12-18T14:46:36;-2.20;99.90
10249;DHT22;5169;50.560;9.714;2022-12-18T14:51:57;-2.20;99.90
10249;DHT22;5169;50.560;9.714;2022-12-18T14:54:30;-2.20;99.90
10249;DHT22;5169;50.560;9.714;2022-12-18T14:57:20;-2.40;99.90
10249;DHT22;5169;50.560;9.714;2022-12-18T14:59:47;-2.50;99.90
10249;DHT22;5169;50.560;9.714;2022-12-18T15:02:24;-2.30;99.90
10249;DHT22;5169;50.560;9.714;2022-12-18T15:07:41;-2.50;99.90
10249;DHT22;5169;50.560;9.714;2022-12-18T15:18:19;-2.70;99.90
10249;DHT22;5169;50.560;9.714;2022-12-18T15:23:22;-2.70;99.90
10249;DHT22;5169;50.560;9.714;2022-12-18T15:26:05;-2.80;99.90
10249;DHT22;5169;50.560;9.714;2022-12-18T15:28:39;-2.80;99.90
10249;DHT22;5169;50.560;9.714;2022-12-18T15:33:38;-3.00;99.90
10249;DHT22;5169;50.560;9.714;2022-12-18T15:36:11;-3.00;99.90
10249;DHT22;5169;50.560;9.714;2022-12-18T15:38:37;-3.00;99.90
10249;DHT22;5169;50.560;9.714;2022-12-18T15:41:11;-3.10;99.90
10249;DHT22;5169;50.560;9.714;2022-12-18T15:43:37;-3.00;99.90
10249;DHT22;5169;50.560;9.714;2022-12-18T15:46:06;-3.00;99.90
10249;DHT22;5169;50.560;9.714;2022-12-18T15:48:38;-2.90;99.90
10249;DHT22;5169;50.560;9.714;2022-12-18T15:51:08;-3.00;99.90
10249;DHT22;5169;50.560;9.714;2022-12-18T15:53:34;-3.00;99.90
10249;DHT22;5169;50.560;9.714;2022-12-18T15:56:00;-3.00;99.90
10249;DHT22;5169;50.560;9.714;2022-12-18T15:58:44;-3.00;99.90
10249;DHT22;5169;50.560;9.714;2022-12-18T16:01:25;-3.00;99.90
10249;DHT22;5169;50.560;9.714;2022-12-18T16:03:51;-3.00;99.90
10249;DHT22;5169;50.560;9.714;2022-12-18T16:06:17;-3.10;99.90
10249;DHT22;5169;50.560;9.714;2022-12-18T16:08:42;-3.20;99.90
10249;DHT22;5169;50.560;9.714;2022-12-18T16:13:45;-3.40;99.90
10249;DHT22;5169;50.560;9.714;2022-12-18T16:16:10;-3.50;99.90
10249;DHT22;5169;50.560;9.714;2022-12-18T16:18:36;-3.50;99.90
10249;DHT22;5169;50.560;9.714;2022-12-18T16:21:04;-3.40;99.90
10249;DHT22;5169;50.560;9.714;2022-12-18T16:23:33;-3.40;99.90
10249;DHT22;5169;50.560;9.714;2022-12-18T16:25:58;-3.20;99.90
10249;DHT22;5169;50.560;9.714;2022-12-18T16:28:24;-3.20;99.90
10249;DHT22;5169;50.560;9.714;2022-12-18T16:30:52;-3.20;99.90
10249;DHT22;5169;50.560;9.714;2022-12-18T16:33:17;-3.20;99.90
10249;DHT22;5169;50.560;9.714;2022-12-18T16:35:51;-3.10;99.90
10249;DHT22;5169;50.560;9.714;2022-12-18T16:38:19;-3.20;99.90
10249;DHT22;5169;50.560;9.714;2022-12-18T16:40:47;-3.30;99.90
10249;DHT22;5169;50.560;9.714;2022-12-18T16:43:31;-3.30;99.90
10249;DHT22;5169;50.560;9.714;2022-12-18T16:46:01;-3.10;99.90
10249;DHT22;5169;50.560;9.714;2022-12-18T16:48:27;-3.00;99.90
10249;DHT22;5169;50.560;9.714;2022-12-18T16:51:00;-3.10;99.90
10249;DHT22;5169;50.560;9.714;2022-12-18T16:53:26;-3.10;99.90
10249;DHT22;5169;50.560;9.714;2022-12-18T16:55:55;-3.00;99.90
10249;DHT22;5169;50.560;9.714;2022-12-18T16:58:22;-2.90;99.90
10249;DHT22;5169;50.560;9.714;2022-12-18T17:00:50;-2.80;99.90
10249;DHT22;5169;50.560;9.714;2022-12-18T17:03:16;-2.80;99.90
10249;DHT22;5169;50.560;9.714;2022-12-18T17:05:41;-2.90;99.90
10249;DHT22;5169;50.560;9.714;2022-12-18T17:08:09;-2.80;99.90
10249;DHT22;5169;50.560;9.714;2022-12-18T17:10:35;-2.70;99.90
10249;DHT22;5169;50.560;9.714;2022-12-18T17:13:01;-2.80;99.90
10249;DHT22;5169;50.560;9.714;2022-12-18T17:15:26;-2.70;99.90
10249;DHT22;5169;50.560;9.714;2022-12-18T17:17:52;-2.80;99.90
10249;DHT22;5169;50.560;9.714;2022-12-18T17:20:20;-2.80;99.90
10249;DHT22;5169;50.560;9.714;2022-12-18T17:22:48;-2.90;99.90
10249;DHT22;5169;50.560;9.714;2022-12-18T17:25:14;-2.80;99.90
10249;DHT22;5169;50.560;9.714;2022-12-18T17:27:43;-2.80;99.90
10249;DHT22;5169;50.560;9.714;2022-12-18T17:30:12;-2.70;99.90
10249;DHT22;5169;50.560;9.714;2022-12-18T17:32:42;-2.60;99.90
10249;DHT22;5169;50.560;9.714;2022-12-18T17:35:08;-2.50;99.90
10249;DHT22;5169;50.560;9.714;2022-12-18T17:37:34;-2.40;99.90
10249;DHT22;5169;50.560;9.714;2022-12-18T17:40:02;-2.40;99.90
10249;DHT22;5169;50.560;9.714;2022-12-18T17:42:28;-2.60;99.90
10249;DHT22;5169;50.560;9.714;2022-12-18T17:44:54;-2.60;99.90
10249;DHT22;5169;50.560;9.714;2022-12-18T17:47:19;-2.70;99.90
10249;DHT22;5169;50.560;9.714;2022-12-18T17:49:47;-2.70;99.90
10249;DHT22;5169;50.560;9.714;2022-12-18T17:52:15;-2.80;99.90
10249;DHT22;5169;50.560;9.714;2022-12-18T17:54:41;-2.80;99.90
10249;DHT22;5169;50.560;9.714;2022-12-18T17:57:08;-2.80;99.90
10249;DHT22;5169;50.560;9.714;2022-12-18T17:59:34;-2.80;99.90
10249;DHT22;5169;50.560;9.714;2022-12-18T18:02:00;-2.80;99.90
10249;DHT22;5169;50.560;9.714;2022-12-18T18:04:26;-2.70;99.90
10249;DHT22;5169;50.560;9.714;2022-12-18T18:06:54;-2.70;99.90
10249;DHT22;5169;50.560;9.714;2022-12-18T18:09:19;-2.60;99.90
10249;DHT22;5169;50.560;9.714;2022-12-18T18:11:47;-2.70;99.90
10249;DHT22;5169;50.560;9.714;2022-12-18T18:14:32;-2.70;99.90
10249;DHT22;5169;50.560;9.714;2022-12-18T18:16:57;-2.70;99.90
10249;DHT22;5169;50.560;9.714;2022-12-18T18:19:23;-2.70;99.90
10249;DHT22;5169;50.560;9.714;2022-12-18T18:21:51;-2.60;99.90